createdAt,value
2019-02-22T00:02:19.668Z,25.67
2019-02-22T00:04:50.574Z,24.00
2019-02-22T00:07:21.584Z,26.87
2019-02-22T00:09:52.652Z,24.40
2019-02-22T00:12:24.085Z,24.20
2019-02-22T00:14:55.080Z,24.87
2019-02-22T00:17:26.030Z,26.30
2019-02-22T00:19:57.025Z,23.60
2019-02-22T00:22:27.985Z,26.50
2019-02-22T00:24:59.071Z,27.87
2019-02-22T00:27:30.068Z,24.83
2019-02-22T00:30:01.028Z,27.53
2019-02-22T00:32:32.018Z,55.27
2019-02-22T00:35:03.126Z,23.07
2019-02-22T00:37:34.150Z,27.13
2019-02-22T00:40:06.155Z,26.70
2019-02-22T00:42:37.206Z,26.03
2019-02-22T00:45:08.216Z,24.93
2019-02-22T00:47:39.198Z,25.37
2019-02-22T00:50:10.252Z,27.50
2019-02-22T00:52:41.138Z,25.27
2019-02-22T00:55:12.026Z,28.40
2019-02-22T00:57:42.987Z,25.27
2019-02-22T01:00:14.122Z,26.37
2019-02-22T01:02:45.092Z,27.50
2019-02-22T01:05:16.136Z,29.03
2019-02-22T01:07:47.293Z,25.97
2019-02-22T01:10:18.212Z,28.93
2019-02-22T01:12:49.192Z,27.53
2019-02-22T01:15:20.230Z,29.03
2019-02-22T01:17:51.104Z,29.03
2019-02-22T01:20:22.132Z,26.03
2019-02-22T01:22:53.094Z,28.13
2019-02-22T01:25:24.255Z,26.37
2019-02-22T01:27:55.162Z,27.27
2019-02-22T01:30:26.034Z,28.03
2019-02-22T01:32:56.934Z,26.97
2019-02-22T01:35:27.944Z,30.70
2019-02-22T01:37:58.948Z,28.63
2019-02-22T01:40:29.988Z,28.03
2019-02-22T01:43:00.967Z,29.90
2019-02-22T01:45:31.875Z,27.73
2019-02-22T01:48:02.742Z,28.97
2019-02-22T01:50:33.688Z,32.33
2019-02-22T01:53:04.661Z,30.90
2019-02-22T01:55:36.045Z,31.40
2019-02-22T01:58:06.907Z,31.50
2019-02-22T02:00:38.159Z,28.97
2019-02-22T02:03:09.041Z,29.83
2019-02-22T02:05:39.987Z,32.00
2019-02-22T02:08:11.113Z,33.80
2019-02-22T02:10:42.463Z,31.53
2019-02-22T02:13:13.403Z,31.10
2019-02-22T02:15:44.447Z,34.67
2019-02-22T02:18:15.487Z,31.53
2019-02-22T02:20:46.728Z,35.03
2019-02-22T02:23:17.787Z,37.90
2019-02-22T02:25:48.869Z,34.40
2019-02-22T02:28:19.882Z,34.63
2019-02-22T02:30:50.838Z,38.90
2019-02-22T02:33:21.810Z,35.53
2019-02-22T02:35:52.859Z,32.80
2019-02-22T02:38:23.831Z,33.07
2019-02-22T02:41:06.858Z,34.13
2019-02-22T02:43:27.433Z,35.10
2019-02-22T02:45:58.302Z,32.67
2019-02-22T02:48:29.309Z,41.73
2019-02-22T02:51:00.262Z,37.47
2019-02-22T02:53:31.280Z,41.67
2019-02-22T02:56:02.258Z,37.03
2019-02-22T02:58:33.284Z,40.13
2019-02-22T03:01:04.255Z,36.93
2019-02-22T03:03:35.208Z,44.10
2019-02-22T03:06:16.775Z,42.10
2019-02-22T03:08:47.800Z,44.63
2019-02-22T03:11:21.108Z,50.17
2019-02-22T03:13:51.296Z,50.87
2019-02-22T03:16:22.208Z,54.90
2019-02-22T03:18:53.266Z,51.50
2019-02-22T03:21:24.221Z,49.63
2019-02-22T03:23:55.090Z,49.50
2019-02-22T03:26:26.032Z,50.63
2019-02-22T03:28:56.932Z,53.30
2019-02-22T03:31:28.001Z,47.87
2019-02-22T03:33:58.914Z,49.23
2019-02-22T03:36:29.904Z,44.63
2019-02-22T03:39:00.869Z,45.23
2019-02-22T03:41:33.458Z,47.23
2019-02-22T03:44:04.680Z,45.43
2019-02-22T03:46:35.649Z,44.17
2019-02-22T03:49:06.571Z,45.03
2019-02-22T03:51:37.646Z,46.03
2019-02-22T03:54:08.584Z,44.30
2019-02-22T03:56:40.036Z,45.37
2019-02-22T03:59:11.061Z,49.07
2019-02-22T04:01:42.089Z,44.00
2019-02-22T04:04:13.393Z,41.73
2019-02-22T04:06:44.463Z,44.50
2019-02-22T04:09:15.357Z,40.57
2019-02-22T04:11:46.597Z,44.13
2019-02-22T04:14:17.635Z,41.83
2019-02-22T04:16:48.588Z,40.13
2019-02-22T04:19:19.624Z,40.70
2019-02-22T04:21:50.716Z,37.83
2019-02-22T04:24:21.725Z,37.97
2019-02-22T04:26:52.680Z,40.20
2019-02-22T04:29:23.662Z,42.60
2019-02-22T04:31:54.644Z,40.00
2019-02-22T04:34:25.514Z,42.23
2019-02-22T04:36:56.392Z,39.97
2019-02-22T04:39:27.292Z,42.00
2019-02-22T04:41:58.521Z,40.00
2019-02-22T04:44:29.456Z,41.73
2019-02-22T04:47:00.442Z,37.20
2019-02-22T04:49:31.327Z,40.80
2019-02-22T04:52:02.224Z,40.53
2019-02-22T04:54:33.145Z,39.40
2019-02-22T04:57:04.204Z,44.43
2019-02-22T04:59:35.230Z,38.07
2019-02-22T05:02:06.431Z,42.33
2019-02-22T05:04:37.453Z,41.83
2019-02-22T05:07:08.493Z,37.60
2019-02-22T05:09:39.511Z,42.83
2019-02-22T05:12:11.342Z,43.50
2019-02-22T05:14:42.469Z,43.23
2019-02-22T05:17:13.402Z,39.53
2019-02-22T05:19:44.287Z,41.50
2019-02-22T05:22:18.263Z,42.73
2019-02-22T05:24:48.624Z,37.57
2019-02-22T05:27:21.277Z,41.00
2019-02-22T05:29:52.265Z,38.40
2019-02-22T05:32:23.333Z,36.37
2019-02-22T05:34:54.304Z,35.97
2019-02-22T05:37:25.245Z,37.73
2019-02-22T05:39:56.375Z,35.67
2019-02-22T05:42:28.691Z,37.60
2019-02-22T05:44:59.724Z,37.27
2019-02-22T05:47:30.919Z,37.27
2019-02-22T05:50:01.926Z,39.20
2019-02-22T05:52:33.255Z,39.43
2019-02-22T05:57:40.227Z,38.97
2019-02-22T06:00:11.372Z,38.90
2019-02-22T06:02:42.350Z,36.77
2019-02-22T06:05:13.327Z,40.13
2019-02-22T06:07:44.294Z,34.07
2019-02-22T06:10:15.363Z,37.30
2019-02-22T06:12:46.471Z,37.10
2019-02-22T06:15:17.497Z,38.63
2019-02-22T06:17:48.501Z,35.50
2019-02-22T06:20:19.540Z,37.37
2019-02-22T06:22:50.474Z,37.77
2019-02-22T06:25:21.462Z,35.57
2019-02-22T06:27:52.360Z,35.70
2019-02-22T06:30:23.438Z,37.40
2019-02-22T06:32:54.411Z,33.30
2019-02-22T06:35:25.291Z,35.63
2019-02-22T06:37:56.272Z,33.63
2019-02-22T06:40:27.210Z,36.17
2019-02-22T06:42:58.249Z,32.70
2019-02-22T06:45:29.196Z,32.87
2019-02-22T06:48:00.169Z,33.30
2019-02-22T06:50:34.038Z,33.10
2019-02-22T06:53:04.099Z,33.67
2019-02-22T06:55:35.051Z,33.10
2019-02-22T06:58:06.001Z,36.10
2019-02-22T07:00:36.943Z,35.10
2019-02-22T07:03:07.913Z,29.33
2019-02-22T07:05:38.949Z,30.93
2019-02-22T07:08:09.995Z,31.47
2019-02-22T07:10:57.441Z,30.23
2019-02-22T07:13:28.449Z,31.10
2019-02-22T07:15:59.467Z,31.63
2019-02-22T07:18:30.492Z,30.23
2019-02-22T07:21:01.444Z,28.67
2019-02-22T07:23:32.338Z,29.40
2019-02-22T07:26:03.297Z,32.33
2019-02-22T07:28:34.267Z,30.03
2019-02-22T07:31:05.311Z,31.73
2019-02-22T07:33:36.244Z,31.60
2019-02-22T07:36:07.327Z,30.70
2019-02-22T07:38:38.297Z,31.47
2019-02-22T07:41:09.770Z,32.67
2019-02-22T07:43:40.849Z,31.90
2019-02-22T07:46:11.823Z,33.57
2019-02-22T07:48:42.778Z,30.13
2019-02-22T07:51:13.683Z,35.00
2019-02-22T07:53:44.581Z,30.03
2019-02-22T07:56:15.456Z,32.43
2019-02-22T07:58:46.506Z,33.07
2019-02-22T08:01:17.521Z,31.67
2019-02-22T08:03:48.473Z,31.83
2019-02-22T08:06:19.563Z,29.07
2019-02-22T08:08:50.581Z,27.50
2019-02-22T08:11:21.582Z,31.33
2019-02-22T08:13:52.548Z,28.17
2019-02-22T08:16:23.487Z,26.70
2019-02-22T08:19:01.469Z,24.80
2019-02-22T08:21:27.338Z,31.53
2019-02-22T08:23:58.555Z,29.27
2019-02-22T08:26:29.582Z,40.47
2019-02-22T08:29:00.675Z,47.67
2019-02-22T08:31:31.564Z,27.37
2019-02-22T08:34:02.546Z,31.17
2019-02-22T08:36:33.539Z,33.33
2019-02-22T08:39:04.880Z,27.63
2019-02-22T08:41:35.928Z,22.73
2019-02-22T08:44:06.896Z,25.33
2019-02-22T08:46:37.861Z,24.23
2019-02-22T08:49:08.743Z,26.50
2019-02-22T08:51:39.888Z,21.13
2019-02-22T08:54:10.784Z,19.27
2019-02-22T08:56:41.798Z,22.20
2019-02-22T08:59:12.787Z,16.13
2019-02-22T09:01:43.670Z,18.03
2019-02-22T09:04:14.626Z,16.67
2019-02-22T09:06:45.592Z,17.13
2019-02-22T09:09:16.591Z,16.37
2019-02-22T09:11:47.722Z,15.63
2019-02-22T09:14:18.786Z,16.03
2019-02-22T09:16:49.834Z,15.93
2019-02-22T09:19:20.775Z,16.63
2019-02-22T09:21:51.819Z,16.33
2019-02-22T09:24:22.804Z,15.90
2019-02-22T09:26:54.205Z,18.90
2019-02-22T09:29:25.371Z,15.77
2019-02-22T09:31:56.316Z,13.43
2019-02-22T09:34:27.292Z,16.03
2019-02-22T09:36:59.007Z,15.67
2019-02-22T09:39:29.994Z,12.87
2019-02-22T09:42:01.037Z,18.00
2019-02-22T09:44:31.977Z,13.20
2019-02-22T09:47:02.934Z,12.97
2019-02-22T09:49:33.924Z,11.33
2019-02-22T09:52:04.956Z,13.00
2019-02-22T09:54:35.935Z,12.90
2019-02-22T09:57:07.488Z,16.43
2019-02-22T09:59:38.504Z,12.67
2019-02-22T10:02:09.479Z,11.47
2019-02-22T10:04:40.488Z,10.20
2019-02-22T10:07:11.546Z,9.57
2019-02-22T10:09:42.401Z,11.97
2019-02-22T10:12:13.379Z,10.63
2019-02-22T10:14:44.356Z,10.53
2019-02-22T10:17:15.445Z,7.70
2019-02-22T10:19:46.374Z,8.47
2019-02-22T10:22:17.382Z,8.60
2019-02-22T10:24:48.331Z,7.40
2019-02-22T10:27:19.343Z,8.13
2019-02-22T10:29:50.409Z,13.20
2019-02-22T10:32:21.325Z,6.43
2019-02-22T10:34:52.308Z,11.00
2019-02-22T10:37:23.351Z,13.03
2019-02-22T10:39:54.396Z,7.73
2019-02-22T10:42:25.387Z,14.00
2019-02-22T10:44:56.426Z,13.97
2019-02-22T10:47:27.455Z,21.57
2019-02-22T10:49:58.544Z,7.57
2019-02-22T10:52:29.552Z,7.20
2019-02-22T10:55:00.697Z,8.90
2019-02-22T10:57:31.795Z,10.70
2019-02-22T11:00:02.911Z,7.43
2019-02-22T11:02:34.010Z,7.53
2019-02-22T11:05:05.126Z,6.77
2019-02-22T11:07:37.262Z,8.03
2019-02-22T11:10:13.111Z,7.10
2019-02-22T11:12:44.238Z,6.23
2019-02-22T11:15:15.629Z,5.93
2019-02-22T11:17:46.634Z,7.70
2019-02-22T11:20:17.559Z,5.93
2019-02-22T11:22:48.604Z,7.03
2019-02-22T11:25:19.543Z,6.87
2019-02-22T11:27:50.631Z,10.30
2019-02-22T11:30:21.676Z,7.97
2019-02-22T11:32:52.640Z,9.13
2019-02-22T11:35:23.695Z,13.83
2019-02-22T11:37:54.895Z,6.33
2019-02-22T11:40:25.821Z,5.33
2019-02-22T11:42:56.884Z,6.57
2019-02-22T11:45:28.073Z,5.27
2019-02-22T11:48:08.651Z,9.60
2019-02-22T11:50:31.729Z,5.07
2019-02-22T11:53:02.617Z,5.50
2019-02-22T11:55:33.823Z,8.93
2019-02-22T11:58:04.818Z,6.03
2019-02-22T12:00:35.763Z,6.60
2019-02-22T12:03:21.140Z,6.07
2019-02-22T12:05:39.458Z,6.07
2019-02-22T12:08:10.422Z,4.33
2019-02-22T12:10:41.514Z,6.60
2019-02-22T12:13:12.460Z,4.90
2019-02-22T12:15:43.562Z,4.93
2019-02-22T12:18:14.463Z,4.77
2019-02-22T12:20:45.616Z,7.63
2019-02-22T12:23:16.635Z,4.50
2019-02-22T12:25:47.660Z,10.63
2019-02-22T12:28:18.760Z,8.73
2019-02-22T12:30:49.865Z,5.03
2019-02-22T12:33:21.126Z,6.83
2019-02-22T12:35:52.118Z,3.83
2019-02-22T12:38:23.437Z,6.00
2019-02-22T12:40:54.458Z,4.80
2019-02-22T12:43:25.434Z,4.13
2019-02-22T12:45:56.452Z,3.90
2019-02-22T12:48:27.606Z,5.10
2019-02-22T12:50:58.766Z,6.70
2019-02-22T12:53:29.801Z,7.30
2019-02-22T12:56:00.644Z,4.73
2019-02-22T12:58:31.669Z,4.07
2019-02-22T13:01:02.712Z,5.23
2019-02-22T13:03:33.689Z,4.90
2019-02-22T13:06:04.704Z,4.73
2019-02-22T13:08:35.872Z,6.60
2019-02-22T13:11:07.007Z,5.60
2019-02-22T13:13:38.029Z,4.70
2019-02-22T13:16:09.012Z,6.17
2019-02-22T13:18:39.902Z,5.60
2019-02-22T13:21:10.846Z,5.93
2019-02-22T13:23:41.750Z,5.33
2019-02-22T13:26:12.661Z,5.73
2019-02-22T13:28:43.709Z,9.23
2019-02-22T13:31:14.694Z,5.33
2019-02-22T13:33:45.683Z,5.97
2019-02-22T13:36:16.712Z,7.13
2019-02-22T13:38:47.629Z,5.47
2019-02-22T13:41:18.601Z,5.13
2019-02-22T13:43:49.637Z,3.73
2019-02-22T13:46:20.810Z,3.57
2019-02-22T13:48:51.829Z,4.43
2019-02-22T13:51:22.907Z,6.83
2019-02-22T13:53:53.842Z,3.00
2019-02-22T13:56:29.547Z,3.27
2019-02-22T13:58:57.486Z,3.20
2019-02-22T14:01:28.367Z,3.63
2019-02-22T14:03:59.430Z,4.47
2019-02-22T14:06:30.391Z,5.53
2019-02-22T14:09:01.647Z,5.27
2019-02-22T14:11:32.490Z,2.33
2019-02-22T14:14:03.384Z,4.40
2019-02-22T14:16:35.936Z,4.17
2019-02-22T14:19:06.959Z,4.13
2019-02-22T14:21:37.910Z,3.20
2019-02-22T14:24:09.814Z,3.07
2019-02-22T14:26:40.755Z,3.00
2019-02-22T14:29:11.706Z,3.80
2019-02-22T14:31:42.741Z,3.13
2019-02-22T14:34:13.618Z,4.40
2019-02-22T14:36:45.135Z,5.13
2019-02-22T14:39:16.172Z,4.03
2019-02-22T14:41:47.106Z,3.37
2019-02-22T14:44:18.155Z,4.50
2019-02-22T14:46:49.289Z,4.40
2019-02-22T14:49:20.150Z,3.60
2019-02-22T14:51:51.080Z,6.33
2019-02-22T14:54:22.201Z,4.13
2019-02-22T14:56:53.181Z,3.80
2019-02-22T14:59:24.182Z,3.93
2019-02-22T15:01:55.125Z,4.87
2019-02-22T15:04:26.090Z,3.97
2019-02-22T15:06:57.128Z,4.40
2019-02-22T15:09:28.151Z,3.73
2019-02-22T15:11:59.171Z,2.83
2019-02-22T15:14:30.138Z,4.03
2019-02-22T15:17:02.973Z,4.77
2019-02-22T15:19:34.001Z,3.20
2019-02-22T15:22:05.004Z,3.70
2019-02-22T15:24:36.001Z,3.03
2019-02-22T15:27:06.974Z,5.67
2019-02-22T15:29:37.881Z,3.50
2019-02-22T15:32:08.941Z,3.60
2019-02-22T15:34:39.774Z,4.17
2019-02-22T15:37:10.742Z,3.50
2019-02-22T15:39:41.751Z,5.00
2019-02-22T15:42:12.948Z,4.47
2019-02-22T15:44:44.253Z,3.47
2019-02-22T15:47:15.193Z,3.20
2019-02-22T15:49:48.499Z,2.93
2019-02-22T15:52:18.717Z,4.20
2019-02-22T15:54:49.681Z,3.30
2019-02-22T15:57:20.803Z,4.10
2019-02-22T15:59:51.782Z,2.93
2019-02-22T16:02:22.685Z,2.80
2019-02-22T16:04:55.382Z,3.33
2019-02-22T16:07:26.365Z,9.33
2019-02-22T16:09:57.306Z,3.03
2019-02-22T16:12:28.333Z,2.73
2019-02-22T16:14:59.237Z,3.57
2019-02-22T16:17:30.333Z,4.27
2019-02-22T16:20:01.499Z,3.53
2019-02-22T16:22:32.461Z,4.97
2019-02-22T16:25:03.451Z,3.30
2019-02-22T16:27:34.314Z,4.37
2019-02-22T16:30:11.603Z,4.00
2019-02-22T16:32:42.535Z,6.53
2019-02-22T16:35:14.040Z,2.60
2019-02-22T16:37:45.032Z,3.10
2019-02-22T16:40:16.126Z,2.50
2019-02-22T16:42:47.203Z,3.33
2019-02-22T16:45:18.297Z,3.23
2019-02-22T16:47:49.474Z,4.47
2019-02-22T16:50:20.435Z,3.77
2019-02-22T16:52:51.378Z,2.40
2019-02-22T16:55:22.491Z,5.10
2019-02-22T16:57:53.560Z,4.53
2019-02-22T17:00:24.423Z,3.57
2019-02-22T17:02:55.473Z,3.37
2019-02-22T17:05:26.314Z,4.93
2019-02-22T17:07:57.294Z,3.30
2019-02-22T17:10:28.316Z,3.87
2019-02-22T17:12:59.257Z,3.43
2019-02-22T17:15:30.289Z,3.40
2019-02-22T17:18:01.407Z,4.67
2019-02-22T17:20:32.384Z,5.97
2019-02-22T17:23:03.370Z,3.80
2019-02-22T17:25:34.390Z,4.40
2019-02-22T17:28:05.437Z,6.23
2019-02-22T17:30:36.461Z,5.33
2019-02-22T17:33:07.536Z,7.40
2019-02-22T17:35:38.400Z,9.73
2019-02-22T17:38:09.298Z,4.10
2019-02-22T17:40:40.192Z,7.83
2019-02-22T17:43:11.151Z,6.97
2019-02-22T17:45:42.173Z,4.63
2019-02-22T17:48:13.038Z,5.27
2019-02-22T17:50:44.002Z,3.60
2019-02-22T17:53:15.017Z,3.73
2019-02-22T17:55:45.934Z,4.93
2019-02-22T17:58:24.090Z,3.27
2019-02-22T18:00:49.857Z,3.50
2019-02-22T18:03:20.797Z,3.60
2019-02-22T18:05:51.799Z,4.90
2019-02-22T18:08:22.757Z,3.70
2019-02-22T18:10:59.211Z,5.87
2019-02-22T18:13:30.258Z,4.10
2019-02-22T18:16:01.287Z,3.67
2019-02-22T18:18:32.218Z,4.83
2019-02-22T18:21:03.356Z,4.53
2019-02-22T18:23:34.399Z,4.73
2019-02-22T18:26:05.450Z,3.87
2019-02-22T18:28:36.499Z,3.03
2019-02-22T18:31:07.372Z,3.87
2019-02-22T18:33:38.243Z,5.63
2019-02-22T18:36:09.160Z,6.50
2019-02-22T18:38:40.186Z,4.77
2019-02-22T18:41:11.090Z,6.10
2019-02-22T18:43:42.127Z,5.20
2019-02-22T18:46:13.141Z,7.40
2019-02-22T18:48:44.095Z,4.90
2019-02-22T18:51:14.946Z,6.07
2019-02-22T18:53:46.016Z,6.13
2019-02-22T18:56:17.282Z,5.20
2019-02-22T18:58:48.326Z,5.73
2019-02-22T19:01:19.244Z,6.13
2019-02-22T19:03:50.364Z,7.07
2019-02-22T19:06:21.251Z,6.03
2019-02-22T19:08:52.318Z,6.17
2019-02-22T19:11:23.216Z,6.57
2019-02-22T19:13:54.179Z,6.93
2019-02-22T19:16:25.067Z,6.37
2019-02-22T19:18:56.064Z,7.37
2019-02-22T19:21:26.969Z,6.60
2019-02-22T19:23:57.930Z,6.77
2019-02-22T19:26:28.999Z,6.00
2019-02-22T19:28:59.881Z,9.57
2019-02-22T19:31:30.814Z,7.43
2019-02-22T19:34:01.778Z,7.53
2019-02-22T19:36:32.914Z,6.37
2019-02-22T19:39:04.461Z,8.03
2019-02-22T19:41:35.522Z,7.07
2019-02-22T19:44:06.440Z,9.07
2019-02-22T19:46:37.475Z,8.67
2019-02-22T19:49:08.344Z,10.07
2019-02-22T19:51:39.402Z,8.30
2019-02-22T19:54:10.415Z,7.23
2019-02-22T19:56:41.398Z,7.10
2019-02-22T19:59:12.376Z,9.43
2019-02-22T20:01:43.372Z,11.40
2019-02-22T20:04:14.411Z,8.77
2019-02-22T20:06:45.449Z,8.93
2019-02-22T20:09:16.445Z,8.07
2019-02-22T20:11:48.701Z,8.17
2019-02-22T20:14:19.779Z,7.80
2019-02-22T20:16:50.789Z,7.77
2019-02-22T20:19:21.835Z,8.83
2019-02-22T20:21:52.697Z,9.27
2019-02-22T20:24:23.681Z,7.70
2019-02-22T20:26:54.706Z,8.50
2019-02-22T20:29:25.609Z,7.63
2019-02-22T20:31:56.553Z,7.17
2019-02-22T20:34:27.668Z,8.20
2019-02-22T20:36:58.532Z,8.50
2019-02-22T20:39:29.577Z,8.73
2019-02-22T20:42:00.539Z,8.60
2019-02-22T20:44:31.599Z,7.40
2019-02-22T20:47:02.600Z,7.60
2019-02-22T20:49:33.871Z,7.23
2019-02-22T20:52:04.820Z,6.30
2019-02-22T20:54:35.689Z,7.73
2019-02-22T20:57:06.653Z,6.70
2019-02-22T20:59:37.568Z,9.33
2019-02-22T21:02:08.586Z,7.33
2019-02-22T21:04:39.606Z,6.77
2019-02-22T21:07:10.744Z,8.47
2019-02-22T21:09:41.810Z,9.33
2019-02-22T21:12:12.972Z,7.13
2019-02-22T21:14:43.843Z,7.67
2019-02-22T21:17:14.827Z,7.83
2019-02-22T21:19:45.677Z,6.90
2019-02-22T21:22:16.915Z,7.70
2019-02-22T21:24:48.120Z,7.00
2019-02-22T21:27:18.980Z,7.47
2019-02-22T21:29:50.005Z,6.90
2019-02-22T21:32:20.896Z,7.87
2019-02-22T21:34:51.861Z,7.40
2019-02-22T21:37:23.309Z,7.60
2019-02-22T21:39:54.297Z,7.33
2019-02-22T21:42:25.153Z,9.40
2019-02-22T21:44:56.136Z,8.93
2019-02-22T21:47:27.144Z,8.57
2019-02-22T21:49:58.105Z,8.23
2019-02-22T21:52:29.237Z,7.90
2019-02-22T21:55:00.321Z,8.77
2019-02-22T21:57:31.249Z,8.50
2019-02-22T22:00:02.211Z,8.17
2019-02-22T22:02:33.296Z,8.87
2019-02-22T22:05:04.433Z,8.30
2019-02-22T22:07:35.272Z,9.40
2019-02-22T22:10:08.163Z,9.27
2019-02-22T22:12:39.212Z,9.60
2019-02-22T22:15:16.226Z,12.47
2019-02-22T22:17:47.179Z,43.67
2019-02-22T22:20:18.146Z,18.37
2019-02-22T22:22:49.229Z,14.77
2019-02-22T22:25:20.304Z,10.57
2019-02-22T22:27:51.424Z,10.13
2019-02-22T22:30:22.446Z,11.77
2019-02-22T22:32:53.520Z,12.03
2019-02-22T22:35:24.562Z,14.17
2019-02-22T22:37:55.512Z,33.83
2019-02-22T22:40:26.590Z,22.43
2019-02-22T22:42:57.571Z,16.13
2019-02-22T22:45:28.605Z,13.77
2019-02-22T22:47:59.465Z,25.73
2019-02-22T22:50:30.375Z,12.30
2019-02-22T22:53:02.056Z,20.13
2019-02-22T22:55:33.020Z,13.67
2019-02-22T22:58:03.989Z,11.73
2019-02-22T23:00:45.863Z,13.33
2019-02-22T23:03:17.190Z,14.20
2019-02-22T23:05:48.267Z,12.27
2019-02-22T23:08:20.976Z,42.30
2019-02-22T23:10:52.018Z,28.70
2019-02-22T23:13:23.107Z,23.30
2019-02-22T23:15:54.139Z,12.70
2019-02-22T23:18:25.191Z,15.57
2019-02-22T23:20:56.106Z,17.30
2019-02-22T23:23:27.146Z,20.40
2019-02-22T23:25:58.092Z,15.10
2019-02-22T23:28:28.987Z,25.57
2019-02-22T23:30:59.950Z,15.90
2019-02-22T23:33:30.944Z,15.90
2019-02-22T23:36:01.896Z,16.23
2019-02-22T23:38:32.830Z,15.07
2019-02-22T23:41:03.714Z,21.50
2019-02-22T23:43:34.839Z,17.40
2019-02-22T23:46:05.782Z,16.90
2019-02-22T23:48:36.713Z,15.60
2019-02-22T23:51:07.756Z,16.70
2019-02-22T23:53:38.743Z,13.57
2019-02-22T23:56:09.807Z,26.87
2019-02-22T23:58:40.781Z,14.10
